Time;durP1;ratioP1;P1;durP2;ratioP2;P2;SDS_P1;SDS_P2;PMS_P1;PMS_P2;Temp;Humidity;BMP_temperature;BMP_pressure;BME280_temperature;BME280_humidity;BME280_pressure;Samples;Min_cycle;Max_cycle;Signal;HPM_P1;HPM_P2
2021/12/08 00:01:31;;;;;;;7.22;5.00;;;;;;;0.55;100.00;95120.47;5024787;28;20084;-53
2021/12/08 00:04:00;;;;;;;6.63;5.65;;;;;;;0.76;100.00;95118.84;5029915;28;20064;-50
2021/12/08 00:06:28;;;;;;;6.25;5.65;;;;;;;0.84;100.00;95111.28;5027845;28;20076;-51
2021/12/08 00:09:17;;;;;;;6.10;4.72;;;;;;;0.65;100.00;95111.91;5028737;28;20073;-52
2021/12/08 00:14:32;;;;;;;5.88;5.30;;;;;;;0.63;100.00;95115.53;5031548;28;20362;-50
2021/12/08 00:17:01;;;;;;;5.97;5.25;;;;;;;0.81;100.00;95129.69;5021637;28;20079;-53
2021/12/08 00:19:29;;;;;;;9.35;5.80;;;;;;;0.85;100.00;95131.09;5007165;28;20606;-52
2021/12/08 00:21:58;;;;;;;6.22;5.25;;;;;;;0.74;100.00;95125.91;5022929;28;20080;-53
2021/12/08 00:24:26;;;;;;;7.88;6.45;;;;;;;0.86;100.00;95111.16;5028381;28;20519;-52
2021/12/08 00:26:57;;;;;;;6.05;5.35;;;;;;;0.75;100.00;95108.56;5027276;28;20073;-47
2021/12/08 00:29:25;;;;;;;5.75;5.25;;;;;;;0.59;100.00;95101.97;5021779;28;20519;-53
2021/12/08 00:31:54;;;;;;;7.13;5.80;;;;;;;0.63;100.00;95100.78;5022652;28;20108;-54
2021/12/08 00:34:22;;;;;;;6.20;5.43;;;;;;;0.57;100.00;95103.03;5027788;28;20076;-50
2021/12/08 00:36:55;;;;;;;6.53;5.30;;;;;;;0.63;100.00;95099.97;5023227;28;20053;-54
2021/12/08 00:39:24;;;;;;;6.35;5.57;;;;;;;0.53;100.00;95091.25;5030916;28;20145;-53
2021/12/08 00:41:53;;;;;;;6.25;5.28;;;;;;;0.66;100.00;95079.81;5023538;28;20061;-55
2021/12/08 00:44:23;;;;;;;6.22;5.53;;;;;;;0.45;100.00;95065.91;5028526;28;20057;-53
2021/12/08 00:46:51;;;;;;;7.65;4.93;;;;;;;0.44;100.00;95051.28;5023897;28;20077;-48
2021/12/08 00:49:20;;;;;;;6.53;5.30;;;;;;;0.20;100.00;95043.59;5029010;28;20550;-50
2021/12/08 00:51:49;;;;;;;7.15;5.53;;;;;;;0.14;100.00;95041.50;5026494;28;20080;-50
2021/12/08 00:54:17;;;;;;;7.65;5.57;;;;;;;0.37;100.00;95032.78;5019596;28;20064;-51
2021/12/08 00:56:45;;;;;;;5.60;5.10;;;;;;;0.07;100.00;95040.28;5025175;28;20471;-54
2021/12/08 00:59:14;;;;;;;7.30;5.10;;;;;;;0.04;100.00;95037.94;5023602;28;20484;-53
2021/12/08 01:01:44;;;;;;;5.68;5.10;;;;;;;0.21;100.00;95040.91;5024632;28;20089;-50
2021/12/08 01:04:12;;;;;;;5.97;5.38;;;;;;;0.14;100.00;95037.13;5031509;28;20068;-49
2021/12/08 01:06:41;;;;;;;6.50;5.22;;;;;;;0.31;100.00;95027.22;5019105;28;20440;-51
2021/12/08 01:09:11;;;;;;;5.53;4.88;;;;;;;0.56;100.00;95026.19;5031190;28;20103;-54
2021/12/08 01:11:40;;;;;;;5.97;5.03;;;;;;;0.61;100.00;95030.03;5030118;28;20067;-48
2021/12/08 01:14:08;;;;;;;6.78;5.53;;;;;;;0.77;100.00;95031.47;5021907;28;20459;-54
2021/12/08 01:16:37;;;;;;;6.35;5.50;;;;;;;0.97;100.00;95028.13;5027009;28;20076;-54
2021/12/08 01:19:07;;;;;;;5.70;5.20;;;;;;;0.80;100.00;95028.63;5020911;28;20053;-53
2021/12/08 01:21:35;;;;;;;7.00;5.57;;;;;;;0.73;100.00;95022.28;5020658;28;20068;-55
2021/12/08 01:24:04;;;;;;;6.95;5.72;;;;;;;0.90;100.00;95035.56;5026807;28;20061;-51
2021/12/08 01:26:33;;;;;;;6.15;5.45;;;;;;;1.01;100.00;95034.72;5025067;28;20081;-53
2021/12/08 01:29:02;;;;;;;6.63;5.35;;;;;;;0.61;100.00;95031.81;5024379;28;20080;-56
2021/12/08 01:31:31;;;;;;;6.45;5.35;;;;;;;1.08;100.00;95032.47;5033598;28;20088;-53
2021/12/08 01:33:59;;;;;;;6.20;5.50;;;;;;;0.88;100.00;95036.63;5023206;28;20068;-56
2021/12/08 01:36:29;;;;;;;6.43;5.30;;;;;;;0.63;100.00;95035.94;5026351;28;20075;-54
2021/12/08 01:38:58;;;;;;;5.65;5.15;;;;;;;0.43;100.00;95034.06;5024644;28;20061;-53
2021/12/08 01:41:27;;;;;;;8.75;5.57;;;;;;;0.99;100.00;95030.59;5018055;28;20077;-52
2021/12/08 01:46:41;;;;;;;6.20;5.20;;;;;;;0.62;100.00;95023.09;5027700;28;20077;-52
2021/12/08 01:49:10;;;;;;;5.82;5.22;;;;;;;0.44;100.00;95020.16;5017959;28;20069;-52
2021/12/08 01:51:40;;;;;;;7.93;6.05;;;;;;;0.85;100.00;95019.53;5024348;28;20080;-55
2021/12/08 01:54:09;;;;;;;6.13;5.50;;;;;;;1.28;100.00;95012.69;5026564;28;20583;-56
2021/12/08 01:56:38;;;;;;;6.72;5.93;;;;;;;1.36;100.00;95010.28;5023016;28;20088;-54
2021/12/08 01:59:09;;;;;;;7.97;6.07;;;;;;;1.10;100.00;95005.44;5024327;28;20076;-53
2021/12/08 02:01:41;;;;;;;8.13;6.18;;;;;;;0.99;100.00;95008.03;5054574;28;20504;-54
2021/12/08 02:04:10;;;;;;;6.20;5.60;;;;;;;1.27;100.00;95009.25;5017586;28;20069;-54
2021/12/08 02:06:43;;;;;;;6.43;5.72;;;;;;;1.18;100.00;94997.84;5025484;28;20076;-53
2021/12/08 02:09:15;;;;;;;7.18;6.07;;;;;;;1.14;100.00;95001.66;5019677;28;20100;-55
2021/12/08 02:11:46;;;;;;;6.65;5.40;;;;;;;1.10;100.00;95000.25;5020973;28;20183;-50
2021/12/08 02:14:15;;;;;;;6.18;5.57;;;;;;;1.08;100.00;95006.50;5025466;28;20167;-53
2021/12/08 02:16:49;;;;;;;5.85;5.20;;;;;;;0.67;100.00;94995.84;5021476;28;20065;-54
2021/12/08 02:19:18;;;;;;;6.40;5.68;;;;;;;0.66;100.00;94989.03;5021584;28;20087;-51
2021/12/08 02:21:52;;;;;;;7.20;5.70;;;;;;;0.98;100.00;94987.41;5021692;28;20069;-54
2021/12/08 02:24:22;;;;;;;6.00;5.40;;;;;;;1.08;100.00;94980.53;5029994;28;20092;-56
2021/12/08 02:26:51;;;;;;;6.00;5.35;;;;;;;0.82;100.00;94985.22;5020423;28;20065;-53
2021/12/08 02:29:33;;;;;;;7.80;5.55;;;;;;;0.89;100.00;94991.56;5016984;28;20599;-49
2021/12/08 02:32:08;;;;;;;5.88;5.28;;;;;;;0.77;100.00;94979.56;5023532;28;20085;-51
2021/12/08 02:48:43;;;;;;;8.18;5.05;;;;;;;0.60;100.00;94963.56;5021700;28;20061;-54
2021/12/08 02:51:12;;;;;;;7.97;5.35;;;;;;;0.49;100.00;94966.19;5021236;28;20530;-49
2021/12/08 02:53:42;;;;;;;6.82;5.43;;;;;;;0.36;100.00;94968.09;5022370;28;20062;-51
2021/12/08 02:56:10;;;;;;;5.78;5.20;;;;;;;0.96;100.00;94953.78;5020372;28;22799;-47
2021/12/08 02:58:39;;;;;;;5.80;5.30;;;;;;;1.35;100.00;94956.72;5023111;28;20444;-51
2021/12/08 03:01:08;;;;;;;5.85;5.25;;;;;;;1.50;100.00;94963.25;5021666;28;20095;-53
2021/12/08 03:03:38;;;;;;;6.43;5.07;;;;;;;1.16;100.00;94958.19;5005424;28;20440;-52
2021/12/08 03:06:07;;;;;;;6.65;5.28;;;;;;;1.63;100.00;94965.66;5012944;28;20491;-52
2021/12/08 03:08:36;;;;;;;5.60;5.10;;;;;;;1.07;100.00;94977.13;5026671;28;20061;-56
2021/12/08 03:11:06;;;;;;;5.55;5.05;;;;;;;1.08;100.00;94958.00;5022378;28;20081;-54
2021/12/08 03:13:39;;;;;;;6.10;5.20;;;;;;;0.93;100.00;94959.25;5026050;28;20093;-48
2021/12/08 03:16:08;;;;;;;5.20;4.70;;;;;;;1.46;100.00;94966.22;5024916;28;20085;-53
2021/12/08 03:18:38;;;;;;;5.82;5.07;;;;;;;1.71;100.00;94967.63;5024705;28;20061;-53
2021/12/08 03:21:09;;;;;;;6.85;5.30;;;;;;;1.41;100.00;94975.22;5023990;28;20061;-53
2021/12/08 03:23:48;;;;;;;;;;;;;;;1.32;100.00;94977.75;5024561;28;20069;-54
2021/12/08 03:26:25;;;;;;;5.78;5.22;;;;;;;1.46;100.00;94972.25;5007148;28;19953;-53
2021/12/08 03:29:00;;;;;;;7.82;5.95;;;;;;;1.71;100.00;94975.41;5003607;28;21092;-53
2021/12/08 03:31:33;;;;;;;6.22;5.60;;;;;;;1.89;100.00;94969.53;5025476;28;20095;-52
2021/12/08 03:34:01;;;;;;;6.07;5.30;;;;;;;1.67;100.00;94969.66;5011219;28;20547;-52
2021/12/08 03:36:30;;;;;;;6.10;5.50;;;;;;;1.40;100.00;94968.34;5019373;28;20065;-50
2021/12/08 03:38:58;;;;;;;6.20;5.20;;;;;;;1.77;100.00;94960.13;5022952;28;21902;-50
2021/12/08 03:41:32;;;;;;;6.30;5.70;;;;;;;2.13;100.00;94956.22;5021837;28;20070;-54
2021/12/08 03:44:01;;;;;;;5.88;5.28;;;;;;;2.17;100.00;94964.59;5028274;28;20091;-53
2021/12/08 03:46:32;;;;;;;6.82;5.22;;;;;;;1.74;100.00;94962.16;5025579;28;20076;-52
2021/12/08 03:49:01;;;;;;;;;;;;;;;2.24;100.00;94970.09;5026756;28;20573;-52
2021/12/08 03:51:29;;;;;;;5.70;5.07;;;;;;;2.30;100.00;94964.34;5024583;28;19964;-52
2021/12/08 03:53:58;;;;;;;6.55;5.20;;;;;;;2.45;100.00;94967.44;5021667;28;20076;-49
2021/12/08 03:56:27;;;;;;;6.70;5.35;;;;;;;2.21;100.00;94965.97;5030365;28;20081;-51
2021/12/08 03:58:56;;;;;;;6.38;5.78;;;;;;;2.19;100.00;94967.03;5022128;28;20084;-51
2021/12/08 04:01:24;;;;;;;8.25;5.55;;;;;;;2.46;100.00;94956.06;5026546;28;20076;-49
2021/12/08 04:03:54;;;;;;;7.40;5.05;;;;;;;2.47;100.00;94968.09;5020491;28;20095;-53
2021/12/08 04:06:30;;;;;;;6.70;5.18;;;;;;;2.55;100.00;94969.09;5020994;28;20072;-55
2021/12/08 04:09:01;;;;;;;7.10;5.70;;;;;;;2.61;100.00;94971.19;5023510;28;21233;-50
2021/12/08 04:11:31;;;;;;;6.43;5.63;;;;;;;2.12;100.00;94959.75;5020412;28;20061;-54
2021/12/08 04:14:02;;;;;;;6.75;5.70;;;;;;;2.11;100.00;94962.50;5024321;28;20534;-48
2021/12/08 04:16:34;;;;;;;5.78;5.15;;;;;;;2.35;100.00;94950.00;5026024;28;20077;-51
2021/12/08 04:19:05;;;;;;;6.13;5.53;;;;;;;1.99;100.00;94948.75;5029408;28;20065;-46
2021/12/08 04:21:34;;;;;;;7.20;6.15;;;;;;;1.13;100.00;94935.09;5034363;28;20069;-49
2021/12/08 04:24:03;;;;;;;6.88;5.70;;;;;;;1.31;100.00;94926.78;5021732;28;20091;-48
2021/12/08 04:26:36;;;;;;;7.10;5.75;;;;;;;1.27;100.00;94925.34;5023022;28;21636;-53
2021/12/08 04:29:06;;;;;;;8.10;6.00;;;;;;;1.09;100.00;94938.06;5027170;28;20076;-54
2021/12/08 04:31:36;;;;;;;7.20;5.53;;;;;;;1.74;100.00;94946.56;5023723;28;20476;-49
2021/12/08 04:34:12;;;;;;;6.80;5.70;;;;;;;1.46;100.00;94967.03;5025761;28;20065;-54
2021/12/08 04:36:42;;;;;;;9.43;5.50;;;;;;;1.86;100.00;94979.34;5022811;28;20049;-51
2021/12/08 04:39:17;;;;;;;5.85;5.03;;;;;;;2.12;100.00;94983.16;5037020;28;20487;-53
2021/12/08 04:41:53;;;;;;;6.13;5.32;;;;;;;2.36;100.00;94974.25;5022017;28;20112;-53
2021/12/08 04:44:30;;;;;;;7.10;5.57;;;;;;;2.25;100.00;94992.53;5025855;28;20116;-47
2021/12/08 04:52:55;;;;;;;8.30;5.40;;;;;;;1.95;100.00;94988.97;5119309;27;20604;-52
2021/12/08 05:03:51;;;;;;;5.90;5.30;;;;;;;1.95;100.00;94983.75;5050970;28;20107;-51
2021/12/08 05:06:36;;;;;;;6.60;5.05;;;;;;;2.63;100.00;94978.03;5052986;28;20067;-48
2021/12/08 05:09:08;;;;;;;6.93;6.05;;;;;;;2.01;100.00;94980.66;5047967;28;20067;-50
2021/12/08 05:11:40;;;;;;;7.35;5.45;;;;;;;2.70;100.00;94992.97;5060515;28;20076;-50
2021/12/08 05:14:10;;;;;;;6.93;5.30;;;;;;;2.59;100.00;95003.50;5048739;28;20088;-47
2021/12/08 05:16:41;;;;;;;6.65;5.57;;;;;;;2.47;100.00;95000.16;5051043;28;20517;-48
2021/12/08 05:19:12;;;;;;;5.90;5.30;;;;;;;2.68;100.00;95009.66;5055905;28;20102;-52
2021/12/08 05:21:43;;;;;;;6.00;5.38;;;;;;;2.28;100.00;95005.28;5049878;28;20076;-49
2021/12/08 05:24:15;;;;;;;8.07;5.95;;;;;;;2.86;100.00;95002.88;5043477;28;20534;-52
2021/12/08 05:26:47;;;;;;;6.85;5.15;;;;;;;2.98;100.00;95014.81;5057413;28;20462;-54
2021/12/08 05:29:19;;;;;;;6.70;5.43;;;;;;;2.80;100.00;95006.84;5051645;28;20093;-45
2021/12/08 05:31:49;;;;;;;7.40;5.53;;;;;;;3.02;100.00;95013.59;5048863;28;20400;-48
2021/12/08 05:34:18;;;;;;;6.20;5.28;;;;;;;2.73;100.00;95007.50;5057924;28;20458;-48
2021/12/08 05:36:47;;;;;;;5.82;5.32;;;;;;;2.63;100.00;95004.88;5043679;28;20088;-48
2021/12/08 05:39:20;;;;;;;8.20;5.60;;;;;;;2.24;100.00;95004.72;5042032;28;20523;-49
2021/12/08 05:41:51;;;;;;;7.00;5.30;;;;;;;3.00;100.00;95012.09;5048866;28;20073;-51
2021/12/08 05:44:20;;;;;;;7.43;5.55;;;;;;;3.13;100.00;95015.25;5052976;28;20114;-53
2021/12/08 05:46:51;;;;;;;6.20;5.60;;;;;;;2.69;100.00;95025.16;5053519;28;20077;-50
2021/12/08 05:49:20;;;;;;;7.13;5.50;;;;;;;3.17;100.00;95021.88;5056017;28;20045;-48
2021/12/08 05:51:51;;;;;;;7.40;5.25;;;;;;;2.94;100.00;95028.25;5047835;28;20431;-47
2021/12/08 05:54:24;;;;;;;7.07;5.55;;;;;;;2.42;100.00;95022.31;5053038;28;20539;-52
2021/12/08 05:56:55;;;;;;;7.10;5.45;;;;;;;2.27;100.00;95024.41;5057027;28;20061;-51
2021/12/08 05:59:24;;;;;;;6.60;5.65;;;;;;;2.31;100.00;95020.63;5040678;28;20045;-49
2021/12/08 06:01:56;;;;;;;7.63;5.78;;;;;;;2.50;100.00;95028.50;5055932;28;20065;-49
2021/12/08 06:04:27;;;;;;;6.70;5.82;;;;;;;2.60;100.00;95018.97;5038210;28;20079;-49
2021/12/08 06:06:56;;;;;;;7.68;5.60;;;;;;;2.29;100.00;95015.53;5034120;28;20072;-49
2021/12/08 06:09:27;;;;;;;6.90;5.50;;;;;;;2.05;100.00;95015.00;5031030;28;20546;-47
2021/12/08 06:11:56;;;;;;;7.68;6.22;;;;;;;2.77;100.00;95009.69;5038159;28;20080;-52
2021/12/08 06:14:31;;;;;;;8.35;6.30;;;;;;;2.76;100.00;95008.06;5032806;28;20076;-53
2021/12/08 06:17:01;;;;;;;8.60;6.55;;;;;;;3.03;100.00;94999.63;5045304;28;20120;-46
2021/12/08 06:19:30;;;;;;;7.82;6.53;;;;;;;2.67;100.00;95006.25;5040603;28;20642;-52
2021/12/08 06:21:59;;;;;;;7.65;6.20;;;;;;;2.72;100.00;95004.09;5038438;28;20080;-51
2021/12/08 06:24:29;;;;;;;8.35;6.38;;;;;;;2.99;100.00;95005.22;5039162;28;20060;-49
2021/12/08 06:26:58;;;;;;;7.78;6.53;;;;;;;3.08;100.00;94996.63;5032206;28;20360;-50
2021/12/08 06:29:26;;;;;;;7.13;5.90;;;;;;;3.37;100.00;95007.06;5039104;28;20076;-51
2021/12/08 06:31:57;;;;;;;9.68;6.30;;;;;;;3.25;100.00;95001.16;5031742;28;20511;-47
2021/12/08 06:34:27;;;;;;;7.88;6.15;;;;;;;3.21;100.00;94991.16;5033125;28;20077;-50
2021/12/08 06:36:59;;;;;;;6.90;6.10;;;;;;;2.58;100.00;95001.81;5035594;28;20076;-48
2021/12/08 06:39:32;;;;;;;7.70;6.00;;;;;;;3.01;100.00;95005.94;5035226;28;20061;-51
2021/12/08 06:42:04;;;;;;;8.07;5.97;;;;;;;3.38;100.00;95010.50;5021609;28;20458;-46
2021/12/08 06:44:39;;;;;;;9.18;6.90;;;;;;;3.17;100.00;95018.44;5027068;28;20080;-52
2021/12/08 06:47:09;;;;;;;8.93;6.80;;;;;;;2.51;100.00;95006.75;5035340;28;20096;-49
2021/12/08 06:49:38;;;;;;;8.43;6.22;;;;;;;2.37;100.00;95001.88;5033286;28;20088;-52
2021/12/08 06:52:10;;;;;;;7.05;5.80;;;;;;;2.98;100.00;94998.38;5042368;28;20559;-50
2021/12/08 06:54:43;;;;;;;9.07;5.97;;;;;;;2.79;100.00;95005.19;5026886;28;20609;-49
2021/12/08 06:57:18;;;;;;;7.38;6.35;;;;;;;2.91;100.00;94998.09;5027603;28;20077;-47
2021/12/08 06:59:57;;;;;;;7.97;6.20;;;;;;;3.35;100.00;95001.16;5040779;28;20068;-46
2021/12/08 07:02:51;;;;;;;6.38;5.78;;;;;;;2.41;100.00;94995.50;5037325;28;20072;-50
2021/12/08 07:05:30;;;;;;;8.45;5.88;;;;;;;2.57;100.00;95002.78;5028260;28;20073;-48
2021/12/08 07:08:07;;;;;;;6.50;5.60;;;;;;;2.74;100.00;95012.56;5041098;28;20457;-52
2021/12/08 07:10:44;;;;;;;6.30;5.40;;;;;;;3.39;100.00;94991.31;5037584;28;20088;-49
2021/12/08 07:13:15;;;;;;;5.43;4.93;;;;;;;3.64;100.00;94974.28;5031043;28;20435;-49
2021/12/08 07:15:47;;;;;;;6.57;5.32;;;;;;;3.52;100.00;94978.81;5045437;28;20546;-51
2021/12/08 07:18:18;;;;;;;6.60;5.10;;;;;;;3.60;100.00;94980.72;5039107;28;20060;-48
2021/12/08 07:20:49;;;;;;;5.97;5.07;;;;;;;3.53;100.00;94973.47;5034291;28;20520;-49
2021/12/08 07:23:22;;;;;;;6.07;5.47;;;;;;;3.30;100.00;94972.94;5038768;28;20049;-53
2021/12/08 07:25:53;;;;;;;6.65;5.60;;;;;;;3.39;100.00;94962.63;5033195;28;20089;-52
2021/12/08 07:28:23;;;;;;;6.82;5.85;;;;;;;3.58;100.00;94954.81;5024589;28;20247;-51
2021/12/08 07:30:58;;;;;;;6.37;5.63;;;;;;;3.13;100.00;94957.97;5036810;28;20077;-47
2021/12/08 07:33:27;;;;;;;7.22;5.80;;;;;;;3.29;100.00;94971.28;5021841;28;20498;-50
2021/12/08 07:35:57;;;;;;;7.53;5.80;;;;;;;3.55;100.00;94971.56;5028053;28;20065;-50
2021/12/08 07:38:28;;;;;;;8.45;6.10;;;;;;;3.59;100.00;94984.31;5041106;28;20095;-55
2021/12/08 07:41:06;;;;;;;9.18;6.10;;;;;;;3.46;100.00;94992.41;5031765;28;20128;-45
2021/12/08 07:43:37;;;;;;;8.02;5.95;;;;;;;3.45;100.00;94996.78;5048072;28;20081;-45
2021/12/08 07:46:11;;;;;;;8.80;5.80;;;;;;;3.31;100.00;94989.38;5043429;28;20079;-51
2021/12/08 07:48:48;;;;;;;8.30;6.13;;;;;;;2.63;100.00;94989.25;5030968;28;20069;-52
2021/12/08 07:51:20;;;;;;;7.03;5.75;;;;;;;2.79;100.00;94980.97;5044096;28;20061;-47
2021/12/08 07:53:50;;;;;;;7.55;5.75;;;;;;;3.16;100.00;94993.34;5040242;28;20087;-48
2021/12/08 07:56:22;;;;;;;9.02;6.32;;;;;;;3.55;100.00;94989.78;5026252;28;20072;-45
2021/12/08 07:58:53;;;;;;;6.10;5.50;;;;;;;3.63;100.00;94994.31;5039212;28;20084;-50
2021/12/08 08:01:24;;;;;;;6.32;5.72;;;;;;;3.57;100.00;94994.84;5038242;28;20396;-50
2021/12/08 08:03:54;;;;;;;6.38;5.20;;;;;;;3.42;100.00;94984.03;5029680;28;20075;-47
2021/12/08 08:06:27;;;;;;;6.13;5.40;;;;;;;4.23;100.00;94965.34;5041011;28;20073;-52
2021/12/08 08:08:56;;;;;;;8.65;6.03;;;;;;;3.57;100.00;94974.00;5033150;28;20637;-51
2021/12/08 08:11:29;;;;;;;6.05;5.38;;;;;;;3.53;100.00;94976.06;5032977;28;20087;-51
2021/12/08 08:13:58;;;;;;;6.85;5.57;;;;;;;3.75;100.00;94977.56;5031910;28;20076;-50
2021/12/08 08:16:31;;;;;;;7.05;5.38;;;;;;;3.69;100.00;94983.34;5036524;28;20546;-53
2021/12/08 08:19:09;;;;;;;6.18;5.13;;;;;;;3.03;100.00;94989.22;5029343;28;20316;-47
2021/12/08 08:21:41;;;;;;;7.65;5.47;;;;;;;2.84;100.00;94992.59;5041657;28;20487;-53
2021/12/08 08:24:10;;;;;;;5.93;5.32;;;;;;;3.40;100.00;94983.34;5035449;28;20533;-48
2021/12/08 08:26:42;;;;;;;7.18;5.75;;;;;;;3.95;100.00;94967.91;5031297;28;20079;-50
2021/12/08 08:29:11;;;;;;;7.30;5.07;;;;;;;4.27;100.00;94967.56;5037668;28;20102;-51
2021/12/08 08:31:42;;;;;;;5.75;5.05;;;;;;;4.48;100.00;94959.50;5031552;28;20507;-47
2021/12/08 08:34:11;;;;;;;7.57;5.22;;;;;;;4.26;100.00;94954.63;5036678;28;20069;-49
2021/12/08 08:36:44;;;;;;;9.68;5.70;;;;;;;3.84;100.00;94960.25;5040873;28;20618;-46
2021/12/08 08:39:17;;;;;;;6.88;5.47;;;;;;;4.09;100.00;94942.34;5033525;28;20077;-54
2021/12/08 08:41:50;;;;;;;6.40;5.65;;;;;;;3.71;100.00;94936.25;5035202;28;20076;-48
2021/12/08 08:44:22;;;;;;;6.30;5.53;;;;;;;4.25;100.00;94934.75;5029240;28;20072;-51
2021/12/08 08:46:53;;;;;;;8.55;6.07;;;;;;;4.28;100.00;94937.06;5028230;28;20073;-47
2021/12/08 08:49:24;;;;;;;7.32;6.20;;;;;;;4.17;100.00;94932.03;5033875;28;20100;-51
2021/12/08 08:52:00;;;;;;;9.82;7.00;;;;;;;3.63;100.00;94929.16;5038302;28;20171;-51
2021/12/08 08:54:32;;;;;;;9.90;7.07;;;;;;;3.45;100.00;94925.63;5028857;28;20065;-48
2021/12/08 08:57:05;;;;;;;10.40;6.75;;;;;;;3.71;100.00;94924.03;5046131;28;20056;-49
2021/12/08 08:59:40;;;;;;;8.80;6.22;;;;;;;3.25;100.00;94932.63;5039000;28;20502;-51
2021/12/08 09:02:09;;;;;;;8.70;6.97;;;;;;;3.93;100.00;94937.75;5028629;28;20183;-47
2021/12/08 09:04:42;;;;;;;9.63;6.70;;;;;;;3.63;100.00;94933.53;5044781;28;20083;-50
2021/12/08 09:07:14;;;;;;;8.88;7.30;;;;;;;3.76;100.00;94932.28;5032443;28;20068;-48
2021/12/08 09:09:46;;;;;;;9.05;7.43;;;;;;;3.56;100.00;94933.28;5035535;28;20534;-51
2021/12/08 09:12:21;;;;;;;7.57;5.97;;;;;;;3.98;100.00;94930.31;5034932;28;20069;-48
2021/12/08 09:14:54;;;;;;;10.07;6.25;;;;;;;4.20;100.00;94927.34;5032351;28;20072;-53
2021/12/08 09:17:27;;;;;;;9.18;6.90;;;;;;;4.10;100.00;94920.53;5029725;28;20077;-50
2021/12/08 09:20:02;;;;;;;9.38;6.38;;;;;;;4.03;100.00;94922.88;5040429;28;20061;-45
2021/12/08 09:22:35;;;;;;;9.02;6.63;;;;;;;4.50;100.00;94920.19;5027425;28;20084;-50
2021/12/08 09:25:12;;;;;;;7.45;6.15;;;;;;;4.25;100.00;94904.25;5041961;28;20069;-48
2021/12/08 09:27:45;;;;;;;7.13;6.32;;;;;;;3.97;100.00;94910.41;5036865;28;20084;-49
2021/12/08 09:30:20;;;;;;;6.80;6.10;;;;;;;4.21;100.00;94902.09;5027028;28;20558;-49
2021/12/08 09:32:51;;;;;;;8.07;6.53;;;;;;;4.31;100.00;94894.22;5036636;28;20061;-45
2021/12/08 09:35:23;;;;;;;9.85;6.85;;;;;;;4.49;100.00;94871.59;5035645;28;20057;-48
2021/12/08 09:37:57;;;;;;;6.65;5.45;;;;;;;4.15;100.00;94884.38;5031364;28;20076;-45
2021/12/08 09:40:29;;;;;;;7.38;5.82;;;;;;;3.65;100.00;94887.28;5038305;28;20061;-52
2021/12/08 09:43:01;;;;;;;7.85;6.10;;;;;;;3.67;100.00;94896.63;5040172;28;20497;-46
2021/12/08 09:45:33;;;;;;;9.25;6.38;;;;;;;2.96;100.00;94901.34;5030308;28;20065;-53
2021/12/08 09:48:03;;;;;;;8.68;6.13;;;;;;;2.88;100.00;94904.63;5042552;28;20611;-51
2021/12/08 09:50:32;;;;;;;9.80;5.88;;;;;;;2.91;100.00;94906.16;5045181;28;20048;-47
2021/12/08 09:53:01;;;;;;;10.95;6.30;;;;;;;3.03;100.00;94902.47;5036173;28;20088;-47
2021/12/08 09:55:30;;;;;;;8.05;5.60;;;;;;;2.97;100.00;94906.44;5052286;28;20637;-53
2021/12/08 09:58:00;;;;;;;6.90;5.30;;;;;;;3.22;100.00;94901.63;5015171;28;20083;-51
2021/12/08 10:00:33;;;;;;;8.40;5.70;;;;;;;2.86;100.00;94903.97;5028171;28;20076;-55
2021/12/08 10:03:04;;;;;;;7.18;5.60;;;;;;;2.54;100.00;94896.38;5035317;28;20089;-45
2021/12/08 10:05:35;;;;;;;6.97;5.93;;;;;;;2.66;100.00;94884.09;5031954;28;20578;-50
2021/12/08 10:08:04;;;;;;;8.70;6.15;;;;;;;3.32;100.00;94874.59;5037619;28;20084;-48
2021/12/08 10:10:33;;;;;;;7.97;5.70;;;;;;;3.72;100.00;94875.38;5047594;28;20096;-48
2021/12/08 10:13:04;;;;;;;7.15;5.72;;;;;;;3.43;100.00;94871.03;5036118;28;20064;-51
2021/12/08 10:15:32;;;;;;;;;;;;;;;3.72;100.00;94870.16;5045320;28;20061;-46
2021/12/08 10:18:01;;;;;;;7.57;5.30;;;;;;;3.28;100.00;94875.03;5048767;28;19959;-52
2021/12/08 10:20:32;;;;;;;6.88;5.82;;;;;;;3.32;100.00;94874.59;5030955;28;20053;-50
2021/12/08 10:23:16;;;;;;;9.10;6.00;;;;;;;3.47;100.00;94867.16;5047067;28;20080;-47
2021/12/08 10:25:47;;;;;;;8.18;5.90;;;;;;;3.32;100.00;94856.38;5038062;28;20084;-48
2021/12/08 10:28:19;;;;;;;7.35;6.13;;;;;;;4.16;100.00;94829.47;5034960;28;20106;-51
2021/12/08 10:30:51;;;;;;;7.45;5.35;;;;;;;4.37;100.00;94812.72;5040906;28;20730;-46
2021/12/08 10:34:00;;;;;;;7.75;5.70;;;;;;;4.31;100.00;94806.31;5036968;28;20571;-51
2021/12/08 10:36:44;;;;;;;9.68;8.52;;;;;;;4.99;100.00;94808.44;5028635;28;20519;-50
2021/12/08 10:39:16;;;;;;;10.90;6.30;;;;;;;5.30;100.00;94811.44;5034700;28;20065;-48
2021/12/08 10:41:54;;;;;;;8.88;6.15;;;;;;;5.64;100.00;94819.34;5036915;28;20065;-53
2021/12/08 10:44:49;;;;;;;6.07;5.40;;;;;;;5.60;100.00;94807.53;5028140;28;20118;-48
2021/12/08 10:47:27;;;;;;;8.48;5.47;;;;;;;4.90;100.00;94804.09;5035489;28;20049;-45
2021/12/08 10:55:54;;;;;;;6.15;5.43;;;;;;;4.95;100.00;94810.50;4971326;28;21314;-45
2021/12/08 10:58:25;;;;;;;7.90;5.32;;;;;;;4.91;100.00;94793.50;4978449;28;20090;-47
2021/12/08 11:00:57;;;;;;;7.88;6.00;;;;;;;5.21;100.00;94781.81;5003416;28;20107;-46
2021/12/08 11:03:31;;;;;;;8.55;6.88;;;;;;;4.52;100.00;94793.00;5031795;28;20057;-48
2021/12/08 11:06:03;;;;;;;7.07;5.88;;;;;;;5.70;100.00;94799.56;5038634;28;20064;-46
2021/12/08 11:08:33;;;;;;;7.68;6.57;;;;;;;6.05;100.00;94782.91;5041847;28;20067;-46
2021/12/08 11:11:22;;;;;;;9.63;5.97;;;;;;;5.56;100.00;94789.69;5036059;28;20138;-46
2021/12/08 11:13:51;;;;;;;;;;;;;;;6.09;100.00;94793.88;5034335;28;20088;-51
2021/12/08 11:16:22;;;;;;;7.68;5.72;;;;;;;6.04;100.00;94796.97;5029568;28;21354;-48
2021/12/08 11:18:52;;;;;;;8.88;5.70;;;;;;;6.09;100.00;94791.25;5038482;28;20080;-52
2021/12/08 11:21:25;;;;;;;8.20;6.85;;;;;;;6.15;100.00;94796.69;5026906;28;20076;-43
2021/12/08 11:24:13;;;;;;;7.28;6.13;;;;;;;6.22;100.00;94785.59;5028540;28;20493;-47
2021/12/08 11:26:43;;;;;;;7.20;5.93;;;;;;;6.21;100.00;94791.81;5041739;28;20071;-46
2021/12/08 11:29:14;;;;;;;8.70;5.70;;;;;;;6.29;100.00;94805.72;5031907;28;20081;-46
2021/12/08 11:31:45;;;;;;;7.75;6.05;;;;;;;6.74;100.00;94787.97;5048667;28;20451;-48
2021/12/08 11:34:17;;;;;;;10.25;6.85;;;;;;;6.44;100.00;94778.97;5032537;28;20136;-47
2021/12/08 11:36:47;;;;;;;7.28;5.57;;;;;;;6.32;100.00;94781.84;5028568;28;20665;-48
2021/12/08 11:39:17;;;;;;;8.32;6.10;;;;;;;6.49;100.00;94776.66;5039825;28;20065;-47
2021/12/08 11:41:47;;;;;;;7.70;6.00;;;;;;;6.47;100.00;94761.13;5034834;28;20076;-50
2021/12/08 11:44:18;;;;;;;11.20;6.13;;;;;;;6.38;100.00;94747.19;5029590;28;20096;-45
2021/12/08 11:47:05;;;;;;;8.13;5.78;;;;;;;6.14;100.00;94755.81;5048072;28;20068;-46
2021/12/08 11:49:34;;;;;;;7.90;6.32;;;;;;;6.32;100.00;94763.53;5038737;28;20085;-51
2021/12/08 11:52:09;;;;;;;7.05;5.50;;;;;;;6.15;100.00;94767.09;5035527;28;20072;-48
2021/12/08 11:54:48;;;;;;;6.00;5.40;;;;;;;6.60;100.00;94748.34;5047246;28;20068;-51
2021/12/08 11:57:19;;;;;;;7.35;6.07;;;;;;;6.48;100.00;94760.13;5027427;28;20065;-49
2021/12/08 11:59:53;;;;;;;8.68;5.82;;;;;;;5.69;100.00;94756.09;5032099;28;20080;-50
2021/12/08 12:02:24;;;;;;;8.27;5.88;;;;;;;6.34;100.00;94748.50;5014679;28;20081;-53
2021/12/08 12:04:53;;;;;;;8.73;5.30;;;;;;;6.53;100.00;94744.75;5013755;28;20076;-51
2021/12/08 12:07:22;;;;;;;8.18;5.35;;;;;;;6.40;100.00;94749.63;5031024;28;20523;-46
2021/12/08 12:09:51;;;;;;;7.60;5.75;;;;;;;6.55;100.00;94741.97;5040592;28;20083;-50
2021/12/08 12:12:20;;;;;;;7.75;5.50;;;;;;;5.90;100.00;94748.66;5036091;28;20541;-50
2021/12/08 12:14:49;;;;;;;6.55;5.82;;;;;;;5.63;100.00;94754.91;5036541;28;20072;-52
2021/12/08 12:17:17;;;;;;;6.15;5.55;;;;;;;5.88;100.00;94741.94;5047823;28;20075;-52
2021/12/08 12:19:51;;;;;;;7.28;5.72;;;;;;;6.33;100.00;94725.06;5029941;28;20111;-53
2021/12/08 12:22:40;;;;;;;8.40;5.43;;;;;;;6.46;100.00;94729.84;5036489;28;20349;-51
2021/12/08 12:25:31;;;;;;;7.55;5.15;;;;;;;6.28;100.00;94736.03;5022588;28;20060;-54
2021/12/08 12:28:31;;;;;;;6.20;5.13;;;;;;;5.98;100.00;94749.69;5032537;28;20052;-52
2021/12/08 12:31:09;;;;;;;7.50;5.45;;;;;;;5.98;100.00;94754.94;5027294;28;20071;-52
2021/12/08 12:33:42;;;;;;;8.35;5.40;;;;;;;6.19;100.00;94744.84;5035469;28;20068;-51
2021/12/08 12:36:21;;;;;;;7.32;5.60;;;;;;;6.40;100.00;94728.69;5034278;28;20078;-52